Share

Danbury, IA (51019)

The Danbury Review (KIADANBU2) Elev 1162 ft | 42.24 °N, 95.72 °W | Change Station
Active Advisory: Fire Weather Watch

Current weather conditions updated 3 minutes ago

Overcast
Overcast
62.0 °F
Feels Like 62.0 °F
N
0.0
Wind Variable Wind from South
Gusts 0.0 mph
Sunrise 6:32 AM
Sunset 8:11 PM
Moon Waning Gibbous

Today is forecast to be Much Cooler than yesterday.

Pressure 29.94 in
Visibility 10.0 miles
Clouds Few 5000 ft
Few 6000 ft
Overcast 11000 ft
Dew Point 54 °F
Humidity 74%
Rainfall -999.00 in
Snow Depth Not available.
UV 0 out of 16
Pollen 9.00 out of 12
Air Quality Not available.
Flu Activity Sporadic
METAR KDNS 210455Z AUTO 19009G14KT 10SM FEW050 FEW060 OVC110 16/14 A2994 RMK AO2

More Conditions Fewer Conditions

Pressure 29.94 in
Visibility 10.0 miles
Clouds Few 5000 ft
Few 6000 ft
Overcast 11000 ft
Dew Point 54 °F
Humidity 74%
Rainfall -999.00 in
Snow Depth Not available.
UV 0 out of 16
Pollen 9.00 out of 12
Air Quality Not available.
Flu Activity Sporadic
METAR KDNS 210455Z AUTO 19009G14KT 10SM FEW050 FEW060 OVC110 16/14 A2994 RMK AO2

More Conditions Fewer Conditions

10-Day Weather Forecast

Almanac

Astronomy

Apr. 21, 2014 Rise Set
Actual Time 6:32 AM CDT 8:11 PM CDT
Civil Twilight 6:03 AM CDT 8:40 PM CDT
Nautical Twilight 5:27 AM CDT 9:16 PM CDT
Astronomical Twilight 4:49 AM CDT 9:55 PM CDT
Moon 1:43 AM CDT 11:59 AM CDT
Length of Visible Light 14h 37m
Length of Day
13h 38m
Tomorrow will be 2m 38s longer.
Waning Gibbous, 63% of the Moon is Illuminated
Today
Waning Gibbous
Apr 22
Last Quarter
Apr 29
New
May 6
First Quarter
May 14
Full

Today's Extremes

State Highs State Lows

Community

  • Snowy Robin
    Snowy Robin
  • Sun Pillar and Geese
    Sun Pillar and Geese
  • Showers on the Way
    Showers on the Way
  • Easter Morning Fog
    Easter Morning Fog
  • Easter Dance
    Easter Dance

WunderPhotos

Upload Photos

1,703,560 photos uploaded!

WunderBlogs® & News

Nearby

Snow Depth

Station Depth Elevation
No new snow has been reported.

Coastal Water Temperatures

Place Temperature
No Stations Reporting

Earthquake Activity

City Distance Mag. Time & Date
No recent earthquake activity has been reported nearby.
Minimum magnitude displayed is 2.5.

Nearby Weather Stations

Station Location Temp. Dew Point Humidity Wind Precip. Elev Updated Type
The Danbury Review, Danbury, IA 62.0 °F 54 °F 74% South  at  0.0 mph 0.00 in / hr 1162 ft 12:05 AM CDT Normal
HADS WEST FORK DITCH AT HORNICK IA, Rodney, IA 63 °F - - North  at  - 0.00 in / hr 1045 ft 11:00 PM CDT MADIS
Oxendales Arthur, IA, Arthur, IA 59.4 °F 56 °F 90% SSW  at  8.3 mph 0.00 in / hr 1496 ft 12:08 AM CDT Rapid Fire
Holstein Ag Services, LLC, Holstein, IA 62.9 °F 56 °F 79% SSW  at  8.0 mph 0.00 in / hr 1381 ft 12:08 AM CDT Rapid Fire

Show More Stations Show Fewer Stations

What do you think?

We're not finished. Please let us know what you like, what you don't like, and what you are still missing.